Snicarte, Illinois
Current Conditions -  °F | °C
As of 5:15 AM on Saturday 20 Dec 2014 (Local Time) from KIJX Reporting Station
Overcast Overcast  
Wind Chill: 33°   Ceiling: 6000
Heat Index: 33°   Visibility: 7mi
Dew Point: 29°   Wind: 0mph
Humidity: 87%   Direction: NA
Pressure: 30.25"   Gusts: NA
Location:  40.1345°N, 90.1653°W
Report Text: KIJX 201115Z AUTO 00000KT 7SM OVC060 01/M01 A3025 RMK AO2 T00051015
Loading
Personal Weather Stations






























Interactive Weather Map New forecast layout! Learn more

10-Day Weather Forecast

Advertisements
Track Severe Weather on mobile